This is the latest recevied weather packets stored in our database for station/object OK1FET-4. If no packets are shown the sender has not sent any weather packets the latest 10 day(s).
| Time | Temp. | Humidity | Pressure | Rain* | Wind** | Luminosity | Snow |
|---|---|---|---|---|---|---|---|
| 1788612174 | 22.22° C | 48% | 1020.1 hPa | - | - | - | - |
| 1788611873 | 21.67° C | 48% | 1020.1 hPa | - | - | - | - |
| 1788611572 | 22.22° C | 47% | 1019.9 hPa | - | - | - | - |
| 1788611271 | 22.22° C | 46% | 1020 hPa | - | - | - | - |
| 1788610970 | 22.78° C | 48% | 1020.2 hPa | - | - | - | - |
| 1788610669 | 22.78° C | 49% | 1020 hPa | - | - | - | - |
| 1788610368 | 22.22° C | 49% | 1020.4 hPa | - | - | - | - |
| 1788610067 | 21.11° C | 53% | 1020.4 hPa | - | - | - | - |
| 1788609766 | 20.56° C | 52% | 1020.3 hPa | - | - | - | - |
| 1788609465 | 20.56° C | 51% | 1020.4 hPa | - | - | - | - |
| 1788609164 | 20.56° C | 53% | 1020.2 hPa | - | - | - | - |
| 1788608863 | 20° C | 56% | 1020.4 hPa | - | - | - | - |
| 1788608562 | 20.56° C | 53% | 1020 hPa | - | - | - | - |
| 1788608261 | 20.56° C | 54% | 1020.5 hPa | - | - | - | - |
| 1788607960 | 21.11° C | 53% | 1020.5 hPa | - | - | - | - |
| 1788607659 | 20.56° C | 54% | 1020.4 hPa | - | - | - | - |
| 1788607359 | 20.56° C | 54% | 1020.5 hPa | - | - | - | - |
| 1788607058 | 20.56° C | 52% | 1020.1 hPa | - | - | - | - |
| 1788606757 | 20.56° C | 53% | 1020.4 hPa | - | - | - | - |
| 1788606456 | 21.11° C | 53% | 1020.5 hPa | - | - | - | - |
| 1788606155 | 20.56° C | 56% | 1020.5 hPa | - | - | - | - |
| 1788605854 | 21.11° C | 54% | 1020.6 hPa | - | - | - | - |
| 1788605553 | 20.56° C | 56% | 1020.5 hPa | - | - | - | - |
| 1788605252 | 20° C | 57% | 1020.6 hPa | - | - | - | - |
| 1788604951 | 20.56° C | 59% | 1020.6 hPa | - | - | - | - |
* Rain since midnight (hover to see other rain measurements)
** Current wind speed in m/s (hover to see current wind gust speed)